sensor_id;sensor_type;location;lat;lon;timestamp;temperature;humidity
39695;DHT22;25367;-35.352;149.036;2023-07-22T00:01:28;17.00;54.30
39695;DHT22;25367;-35.352;149.036;2023-07-22T00:03:57;17.10;54.20
39695;DHT22;25367;-35.352;149.036;2023-07-22T00:06:27;17.30;53.90
39695;DHT22;25367;-35.352;149.036;2023-07-22T00:08:57;17.40;53.70
39695;DHT22;25367;-35.352;149.036;2023-07-22T00:11:26;17.60;53.40
39695;DHT22;25367;-35.352;149.036;2023-07-22T00:13:59;17.60;53.10
39695;DHT22;25367;-35.352;149.036;2023-07-22T00:16:29;17.80;52.80
39695;DHT22;25367;-35.352;149.036;2023-07-22T00:18:58;17.80;52.40
39695;DHT22;25367;-35.352;149.036;2023-07-22T00:21:27;17.90;52.20
39695;DHT22;25367;-35.352;149.036;2023-07-22T00:23:57;17.90;52.10
39695;DHT22;25367;-35.352;149.036;2023-07-22T00:26:26;18.00;52.00
39695;DHT22;25367;-35.352;149.036;2023-07-22T00:28:57;18.00;51.80
39695;DHT22;25367;-35.352;149.036;2023-07-22T00:31:27;18.10;51.70
39695;DHT22;25367;-35.352;149.036;2023-07-22T00:33:56;18.10;51.60
39695;DHT22;25367;-35.352;149.036;2023-07-22T00:36:26;18.10;52.10
39695;DHT22;25367;-35.352;149.036;2023-07-22T00:38:56;18.20;51.50
39695;DHT22;25367;-35.352;149.036;2023-07-22T00:41:25;18.20;51.50
39695;DHT22;25367;-35.352;149.036;2023-07-22T00:43:54;18.20;51.50
39695;DHT22;25367;-35.352;149.036;2023-07-22T00:46:26;18.30;51.50
39695;DHT22;25367;-35.352;149.036;2023-07-22T00:48:56;18.30;51.40
39695;DHT22;25367;-35.352;149.036;2023-07-22T00:51:25;18.30;51.40
39695;DHT22;25367;-35.352;149.036;2023-07-22T00:53:54;18.40;51.40
39695;DHT22;25367;-35.352;149.036;2023-07-22T00:56:24;18.40;51.40
39695;DHT22;25367;-35.352;149.036;2023-07-22T00:58:53;18.40;51.30
39695;DHT22;25367;-35.352;149.036;2023-07-22T01:01:25;18.50;51.40
39695;DHT22;25367;-35.352;149.036;2023-07-22T01:03:54;18.50;51.30
39695;DHT22;25367;-35.352;149.036;2023-07-22T01:06:24;18.50;51.30
39695;DHT22;25367;-35.352;149.036;2023-07-22T01:08:53;18.50;51.30
39695;DHT22;25367;-35.352;149.036;2023-07-22T01:11:23;18.60;51.30
39695;DHT22;25367;-35.352;149.036;2023-07-22T01:13:52;18.60;51.20
39695;DHT22;25367;-35.352;149.036;2023-07-22T01:16:22;18.60;51.20
39695;DHT22;25367;-35.352;149.036;2023-07-22T01:18:54;18.60;51.20
39695;DHT22;25367;-35.352;149.036;2023-07-22T01:21:24;18.70;51.20
39695;DHT22;25367;-35.352;149.036;2023-07-22T01:23:57;18.70;51.20
39695;DHT22;25367;-35.352;149.036;2023-07-22T01:26:26;18.70;51.20
39695;DHT22;25367;-35.352;149.036;2023-07-22T01:29:04;18.80;51.20
39695;DHT22;25367;-35.352;149.036;2023-07-22T01:31:35;18.80;51.10
39695;DHT22;25367;-35.352;149.036;2023-07-22T01:34:04;18.80;51.20
39695;DHT22;25367;-35.352;149.036;2023-07-22T01:36:33;18.80;51.10
39695;DHT22;25367;-35.352;149.036;2023-07-22T01:39:06;18.80;51.00
39695;DHT22;25367;-35.352;149.036;2023-07-22T01:41:35;18.90;51.10
39695;DHT22;25367;-35.352;149.036;2023-07-22T01:44:05;18.90;51.00
39695;DHT22;25367;-35.352;149.036;2023-07-22T01:46:34;18.90;51.00
39695;DHT22;25367;-35.352;149.036;2023-07-22T01:49:06;18.90;51.00
39695;DHT22;25367;-35.352;149.036;2023-07-22T01:51:36;19.00;51.00
39695;DHT22;25367;-35.352;149.036;2023-07-22T01:54:09;19.00;50.90
39695;DHT22;25367;-35.352;149.036;2023-07-22T01:56:39;19.00;50.90
39695;DHT22;25367;-35.352;149.036;2023-07-22T01:59:08;19.00;50.90
39695;DHT22;25367;-35.352;149.036;2023-07-22T02:01:37;19.00;50.80
39695;DHT22;25367;-35.352;149.036;2023-07-22T02:04:07;19.00;50.80
39695;DHT22;25367;-35.352;149.036;2023-07-22T02:06:36;19.10;50.80
39695;DHT22;25367;-35.352;149.036;2023-07-22T02:09:07;19.10;50.80
39695;DHT22;25367;-35.352;149.036;2023-07-22T02:11:37;19.10;50.70
39695;DHT22;25367;-35.352;149.036;2023-07-22T02:14:06;19.10;49.70
39695;DHT22;25367;-35.352;149.036;2023-07-22T02:16:36;19.00;49.10
39695;DHT22;25367;-35.352;149.036;2023-07-22T02:19:05;19.00;49.50
39695;DHT22;25367;-35.352;149.036;2023-07-22T02:21:43;19.00;49.50
39695;DHT22;25367;-35.352;149.036;2023-07-22T02:24:16;19.10;49.10
39695;DHT22;25367;-35.352;149.036;2023-07-22T02:26:45;19.10;49.00
39695;DHT22;25367;-35.352;149.036;2023-07-22T02:29:14;19.10;49.00
39695;DHT22;25367;-35.352;149.036;2023-07-22T02:31:44;19.10;49.10
39695;DHT22;25367;-35.352;149.036;2023-07-22T02:34:13;19.10;49.00
39695;DHT22;25367;-35.352;149.036;2023-07-22T02:36:43;19.20;49.10
39695;DHT22;25367;-35.352;149.036;2023-07-22T02:39:14;19.20;49.10
39695;DHT22;25367;-35.352;149.036;2023-07-22T02:41:44;19.20;49.20
39695;DHT22;25367;-35.352;149.036;2023-07-22T02:44:13;19.30;49.30
39695;DHT22;25367;-35.352;149.036;2023-07-22T02:46:43;19.20;49.30
39695;DHT22;25367;-35.352;149.036;2023-07-22T02:49:12;19.30;49.50
39695;DHT22;25367;-35.352;149.036;2023-07-22T02:51:42;19.30;49.50
39695;DHT22;25367;-35.352;149.036;2023-07-22T02:54:13;19.30;49.60
39695;DHT22;25367;-35.352;149.036;2023-07-22T03:53:18;18.40;51.40
39695;DHT22;25367;-35.352;149.036;2023-07-22T03:55:48;18.50;52.30
39695;DHT22;25367;-35.352;149.036;2023-07-22T03:58:17;18.60;52.10
39695;DHT22;25367;-35.352;149.036;2023-07-22T04:00:49;18.80;51.90
39695;DHT22;25367;-35.352;149.036;2023-07-22T04:03:18;18.90;51.70
39695;DHT22;25367;-35.352;149.036;2023-07-22T04:05:55;19.10;51.50
39695;DHT22;25367;-35.352;149.036;2023-07-22T04:08:28;19.10;51.30
39695;DHT22;25367;-35.352;149.036;2023-07-22T04:10:58;19.20;51.20
39695;DHT22;25367;-35.352;149.036;2023-07-22T04:13:28;19.30;51.10
39695;DHT22;25367;-35.352;149.036;2023-07-22T04:15:57;19.40;51.10
39695;DHT22;25367;-35.352;149.036;2023-07-22T04:18:26;19.40;50.90
39695;DHT22;25367;-35.352;149.036;2023-07-22T04:20:57;19.40;50.90
39695;DHT22;25367;-35.352;149.036;2023-07-22T04:23:32;19.50;50.90
39695;DHT22;25367;-35.352;149.036;2023-07-22T04:26:03;19.50;50.80
39695;DHT22;25367;-35.352;149.036;2023-07-22T04:28:33;19.60;50.80
39695;DHT22;25367;-35.352;149.036;2023-07-22T04:31:03;19.60;50.70
39695;DHT22;25367;-35.352;149.036;2023-07-22T04:33:32;19.60;50.60
39695;DHT22;25367;-35.352;149.036;2023-07-22T04:36:02;19.60;50.60
39695;DHT22;25367;-35.352;149.036;2023-07-22T04:38:34;19.70;50.60
39695;DHT22;25367;-35.352;149.036;2023-07-22T04:41:04;19.70;50.60
39695;DHT22;25367;-35.352;149.036;2023-07-22T04:43:34;19.70;50.50
39695;DHT22;25367;-35.352;149.036;2023-07-22T04:46:04;19.80;50.60
39695;DHT22;25367;-35.352;149.036;2023-07-22T04:48:33;19.70;50.50
39695;DHT22;25367;-35.352;149.036;2023-07-22T04:51:02;19.80;50.40
39695;DHT22;25367;-35.352;149.036;2023-07-22T04:53:35;19.80;50.10
39695;DHT22;25367;-35.352;149.036;2023-07-22T04:56:05;19.90;50.40
39695;DHT22;25367;-35.352;149.036;2023-07-22T04:58:34;19.80;50.10
39695;DHT22;25367;-35.352;149.036;2023-07-22T05:01:03;19.80;50.10
39695;DHT22;25367;-35.352;149.036;2023-07-22T05:03:33;19.90;50.20
39695;DHT22;25367;-35.352;149.036;2023-07-22T05:06:02;19.90;50.20
39695;DHT22;25367;-35.352;149.036;2023-07-22T05:08:34;19.90;50.20
39695;DHT22;25367;-35.352;149.036;2023-07-22T05:11:03;19.90;50.20
39695;DHT22;25367;-35.352;149.036;2023-07-22T05:13:33;20.00;50.20
39695;DHT22;25367;-35.352;149.036;2023-07-22T05:16:02;20.00;50.10
39695;DHT22;25367;-35.352;149.036;2023-07-22T05:18:32;20.00;50.10
39695;DHT22;25367;-35.352;149.036;2023-07-22T05:21:01;20.00;50.10
39695;DHT22;25367;-35.352;149.036;2023-07-22T05:23:33;20.00;50.10
39695;DHT22;25367;-35.352;149.036;2023-07-22T05:26:03;20.00;50.00
39695;DHT22;25367;-35.352;149.036;2023-07-22T05:28:32;20.00;50.00
39695;DHT22;25367;-35.352;149.036;2023-07-22T05:31:02;20.00;49.90
39695;DHT22;25367;-35.352;149.036;2023-07-22T05:33:31;20.00;49.80
39695;DHT22;25367;-35.352;149.036;2023-07-22T05:36:01;20.00;49.80
39695;DHT22;25367;-35.352;149.036;2023-07-22T05:38:30;20.10;49.80
39695;DHT22;25367;-35.352;149.036;2023-07-22T05:41:02;20.00;49.70
39695;DHT22;25367;-35.352;149.036;2023-07-22T05:43:32;20.10;49.80
39695;DHT22;25367;-35.352;149.036;2023-07-22T05:46:01;20.10;49.90
39695;DHT22;25367;-35.352;149.036;2023-07-22T05:48:31;20.00;49.80
39695;DHT22;25367;-35.352;149.036;2023-07-22T05:51:00;20.10;49.90
39695;DHT22;25367;-35.352;149.036;2023-07-22T05:53:29;20.10;49.60
39695;DHT22;25367;-35.352;149.036;2023-07-22T05:56:02;20.10;49.60
39695;DHT22;25367;-35.352;149.036;2023-07-22T05:58:31;20.10;49.60
39695;DHT22;25367;-35.352;149.036;2023-07-22T06:01:00;20.10;49.70
39695;DHT22;25367;-35.352;149.036;2023-07-22T06:03:30;20.00;49.60
39695;DHT22;25367;-35.352;149.036;2023-07-22T06:05:59;20.10;49.50
39695;DHT22;25367;-35.352;149.036;2023-07-22T06:08:29;20.10;49.50
39695;DHT22;25367;-35.352;149.036;2023-07-22T06:11:01;20.10;49.50
39695;DHT22;25367;-35.352;149.036;2023-07-22T06:13:31;20.10;49.50
39695;DHT22;25367;-35.352;149.036;2023-07-22T06:16:00;20.10;49.50
39695;DHT22;25367;-35.352;149.036;2023-07-22T06:18:29;20.10;49.50
39695;DHT22;25367;-35.352;149.036;2023-07-22T06:20:59;20.10;49.30
39695;DHT22;25367;-35.352;149.036;2023-07-22T06:23:28;20.10;49.20
39695;DHT22;25367;-35.352;149.036;2023-07-22T06:25:58;20.10;49.20
39695;DHT22;25367;-35.352;149.036;2023-07-22T06:28:30;20.10;49.10
39695;DHT22;25367;-35.352;149.036;2023-07-22T06:31:00;20.10;49.20
39695;DHT22;25367;-35.352;149.036;2023-07-22T06:33:29;20.10;49.30
39695;DHT22;25367;-35.352;149.036;2023-07-22T06:36:00;20.10;49.30
39695;DHT22;25367;-35.352;149.036;2023-07-22T06:38:30;20.10;49.20
39695;DHT22;25367;-35.352;149.036;2023-07-22T06:41:00;20.10;49.00
39695;DHT22;25367;-35.352;149.036;2023-07-22T06:43:32;20.10;48.90
39695;DHT22;25367;-35.352;149.036;2023-07-22T06:46:02;20.10;48.90
39695;DHT22;25367;-35.352;149.036;2023-07-22T06:48:32;20.10;48.80
39695;DHT22;25367;-35.352;149.036;2023-07-22T06:51:01;20.00;48.70
39695;DHT22;25367;-35.352;149.036;2023-07-22T06:53:33;20.00;48.60
39695;DHT22;25367;-35.352;149.036;2023-07-22T06:56:03;19.90;48.80
39695;DHT22;25367;-35.352;149.036;2023-07-22T06:58:36;19.90;48.70
39695;DHT22;25367;-35.352;149.036;2023-07-22T07:01:06;20.00;48.60
39695;DHT22;25367;-35.352;149.036;2023-07-22T07:03:35;20.00;48.60
39695;DHT22;25367;-35.352;149.036;2023-07-22T07:06:05;20.00;48.70
39695;DHT22;25367;-35.352;149.036;2023-07-22T07:08:34;20.00;48.60
39695;DHT22;25367;-35.352;149.036;2023-07-22T07:11:04;20.00;48.50
39695;DHT22;25367;-35.352;149.036;2023-07-22T07:13:37;19.90;48.40
39695;DHT22;25367;-35.352;149.036;2023-07-22T07:16:23;19.90;48.50
39695;DHT22;25367;-35.352;149.036;2023-07-22T07:18:57;19.90;48.50
39695;DHT22;25367;-35.352;149.036;2023-07-22T07:21:27;19.90;48.50
39695;DHT22;25367;-35.352;149.036;2023-07-22T07:23:56;19.90;48.50
39695;DHT22;25367;-35.352;149.036;2023-07-22T07:26:26;19.90;48.60
39695;DHT22;25367;-35.352;149.036;2023-07-22T07:28:58;19.90;48.60
39695;DHT22;25367;-35.352;149.036;2023-07-22T07:31:27;19.80;48.50
39695;DHT22;25367;-35.352;149.036;2023-07-22T07:33:57;19.90;48.50
39695;DHT22;25367;-35.352;149.036;2023-07-22T07:36:27;19.90;48.50
39695;DHT22;25367;-35.352;149.036;2023-07-22T07:38:56;19.90;48.40
39695;DHT22;25367;-35.352;149.036;2023-07-22T07:41:26;19.90;48.30
39695;DHT22;25367;-35.352;149.036;2023-07-22T07:43:57;19.90;48.30
39695;DHT22;25367;-35.352;149.036;2023-07-22T07:46:27;19.90;48.30
39695;DHT22;25367;-35.352;149.036;2023-07-22T07:48:59;19.90;48.30
39695;DHT22;25367;-35.352;149.036;2023-07-22T07:51:37;19.80;48.40
39695;DHT22;25367;-35.352;149.036;2023-07-22T07:54:09;19.80;48.40
39695;DHT22;25367;-35.352;149.036;2023-07-22T07:56:41;19.80;48.50
39695;DHT22;25367;-35.352;149.036;2023-07-22T07:59:15;19.80;48.40
39695;DHT22;25367;-35.352;149.036;2023-07-22T08:01:47;19.80;48.50
39695;DHT22;25367;-35.352;149.036;2023-07-22T08:04:17;19.70;48.50
39695;DHT22;25367;-35.352;149.036;2023-07-22T08:06:51;19.70;48.50
39695;DHT22;25367;-35.352;149.036;2023-07-22T08:09:24;19.70;48.60
39695;DHT22;25367;-35.352;149.036;2023-07-22T08:11:59;19.70;48.70
39695;DHT22;25367;-35.352;149.036;2023-07-22T08:14:34;19.70;48.70
39695;DHT22;25367;-35.352;149.036;2023-07-22T08:17:06;19.70;48.70
39695;DHT22;25367;-35.352;149.036;2023-07-22T08:19:36;19.70;48.60
39695;DHT22;25367;-35.352;149.036;2023-07-22T08:22:06;19.70;48.50
39695;DHT22;25367;-35.352;149.036;2023-07-22T08:24:35;19.70;48.50
39695;DHT22;25367;-35.352;149.036;2023-07-22T08:27:08;19.70;48.50
39695;DHT22;25367;-35.352;149.036;2023-07-22T08:29:47;19.70;48.50
39695;DHT22;25367;-35.352;149.036;2023-07-22T08:32:16;19.60;48.50
39695;DHT22;25367;-35.352;149.036;2023-07-22T08:34:46;19.60;48.50
39695;DHT22;25367;-35.352;149.036;2023-07-22T08:37:15;19.60;48.50
39695;DHT22;25367;-35.352;149.036;2023-07-22T08:39:45;19.60;48.50
39695;DHT22;25367;-35.352;149.036;2023-07-22T08:42:15;19.60;48.40
39695;DHT22;25367;-35.352;149.036;2023-07-22T08:44:52;19.70;48.30
39695;DHT22;25367;-35.352;149.036;2023-07-22T08:47:25;19.60;48.40
39695;DHT22;25367;-35.352;149.036;2023-07-22T08:50:00;19.60;48.30
39695;DHT22;25367;-35.352;149.036;2023-07-22T08:52:30;19.60;48.30
39695;DHT22;25367;-35.352;149.036;2023-07-22T08:55:01;19.50;48.20
39695;DHT22;25367;-35.352;149.036;2023-07-22T08:57:31;19.50;48.20
39695;DHT22;25367;-35.352;149.036;2023-07-22T09:00:05;19.50;48.10
39695;DHT22;25367;-35.352;149.036;2023-07-22T09:02:35;19.50;48.10
39695;DHT22;25367;-35.352;149.036;2023-07-22T09:05:05;19.50;48.10
39695;DHT22;25367;-35.352;149.036;2023-07-22T09:07:34;19.40;48.50
39695;DHT22;25367;-35.352;149.036;2023-07-22T09:10:04;19.40;48.00
39695;DHT22;25367;-35.352;149.036;2023-07-22T09:12:35;19.40;48.00
39695;DHT22;25367;-35.352;149.036;2023-07-22T09:15:11;19.40;48.10
39695;DHT22;25367;-35.352;149.036;2023-07-22T09:17:41;19.50;48.20
39695;DHT22;25367;-35.352;149.036;2023-07-22T09:20:13;19.50;48.20
39695;DHT22;25367;-35.352;149.036;2023-07-22T09:22:45;19.40;48.30
39695;DHT22;25367;-35.352;149.036;2023-07-22T09:25:16;19.40;48.40
39695;DHT22;25367;-35.352;149.036;2023-07-22T09:27:46;19.50;48.50
39695;DHT22;25367;-35.352;149.036;2023-07-22T09:30:28;19.50;48.70
39695;DHT22;25367;-35.352;149.036;2023-07-22T09:32:59;19.50;48.80
39695;DHT22;25367;-35.352;149.036;2023-07-22T09:35:30;19.50;49.00
39695;DHT22;25367;-35.352;149.036;2023-07-22T09:38:00;19.60;49.10
39695;DHT22;25367;-35.352;149.036;2023-07-22T09:40:29;19.60;49.20
39695;DHT22;25367;-35.352;149.036;2023-07-22T09:43:02;19.70;49.30
39695;DHT22;25367;-35.352;149.036;2023-07-22T09:45:34;19.70;49.20
39695;DHT22;25367;-35.352;149.036;2023-07-22T09:48:04;19.70;49.10
39695;DHT22;25367;-35.352;149.036;2023-07-22T09:50:34;19.80;49.20
39695;DHT22;25367;-35.352;149.036;2023-07-22T09:53:05;19.70;49.20
39695;DHT22;25367;-35.352;149.036;2023-07-22T09:55:35;19.70;49.20
39695;DHT22;25367;-35.352;149.036;2023-07-22T09:58:04;19.70;49.10
39695;DHT22;25367;-35.352;149.036;2023-07-22T10:00:37;19.70;49.10
39695;DHT22;25367;-35.352;149.036;2023-07-22T10:03:11;19.80;49.10
39695;DHT22;25367;-35.352;149.036;2023-07-22T10:05:41;19.70;49.00
39695;DHT22;25367;-35.352;149.036;2023-07-22T10:08:11;19.70;49.00
